Time;durP1;ratioP1;P1;durP2;ratioP2;P2;SDS_P1;SDS_P2;PMS_P1;PMS_P2;Temp;Humidity;BMP_temperature;BMP_pressure;BME280_temperature;BME280_humidity;BME280_pressure;Samples;Min_cycle;Max_cycle;Signal;HPM_P1;HPM_P2
2022/01/30 00:00:51;;;;;;;;;;;;;;;4.67;67.59;97647.50;4988874;28;1663;-94
2022/01/30 00:03:18;;;;;;;;;;;;;;;4.65;67.39;97647.78;4977950;28;2077;-95
2022/01/30 00:05:45;;;;;;;;;;;;;;;4.64;67.66;97662.13;4985632;28;1825;-92
2022/01/30 00:08:11;;;;;;;;;;;;;;;4.65;67.65;97650.44;4988635;28;1912;-93
2022/01/30 00:10:40;;;;;;;;;;;;;;;4.65;67.64;97654.97;4989655;28;1940;-93
2022/01/30 00:13:11;;;;;;;;;;;;;;;4.63;67.54;97678.41;4997139;28;2205;-94
2022/01/30 00:15:42;;;;;;;;;;;;;;;4.62;67.87;97682.94;4971184;28;1971;-92
2022/01/30 00:18:29;;;;;;;;;;;;;;;4.61;67.63;97685.84;4996591;28;1904;-93
2022/01/30 00:21:06;;;;;;;;;;;;;;;4.61;67.59;97697.31;4985688;28;1281;-93
2022/01/30 00:23:36;;;;;;;;;;;;;;;4.58;67.71;97695.13;4978325;28;2207;-93
2022/01/30 00:26:06;;;;;;;;;;;;;;;4.59;67.80;97699.44;4983145;28;1183;-95
2022/01/30 00:28:33;;;;;;;;;;;;;;;4.58;67.54;97723.66;4982345;28;1855;-93
2022/01/30 00:31:00;;;;;;;;;;;;;;;4.59;67.70;97742.09;4966837;28;1332;-94
2022/01/30 00:33:26;;;;;;;;;;;;;;;4.58;67.27;97745.78;4995379;28;1944;-94
2022/01/30 00:35:53;;;;;;;;;;;;;;;4.57;67.70;97759.38;4966917;28;1984;-94
2022/01/30 00:38:21;;;;;;;;;;;;;;;4.57;67.72;97762.03;4983183;28;1863;-94
2022/01/30 00:40:48;;;;;;;;;;;;;;;4.56;67.69;97769.25;4983896;28;2093;-94
2022/01/30 00:43:15;;;;;;;;;;;;;;;4.55;67.43;97775.59;4986290;28;2235;-94
2022/01/30 00:45:42;;;;;;;;;;;;;;;4.55;67.58;97783.59;5000900;28;1469;-94
2022/01/30 00:48:09;;;;;;;;;;;;;;;4.55;67.56;97791.59;4998377;28;1729;-94
2022/01/30 00:50:35;;;;;;;;;;;;;;;4.53;67.60;97815.06;4982095;28;1477;-93
2022/01/30 00:53:02;;;;;;;;;;;;;;;4.53;67.52;97805.19;4986741;28;1502;-94
2022/01/30 00:58:09;;;;;;;;;;;;;;;4.54;67.32;97836.13;4977861;28;1801;-93
2022/01/30 01:00:35;;;;;;;;;;;;;;;4.51;67.21;97852.59;4974896;28;1299;-93
2022/01/30 01:03:02;;;;;;;;;;;;;;;4.51;67.30;97849.94;4980957;28;1743;-94
2022/01/30 01:05:30;;;;;;;;;;;;;;;4.51;67.30;97849.94;4984852;28;1825;-93
2022/01/30 01:07:59;;;;;;;;;;;;;;;4.53;67.17;97871.03;4983025;28;1729;-93
2022/01/30 01:10:34;;;;;;;;;;;;;;;4.50;67.19;97879.47;4983706;28;1363;-94
2022/01/30 01:24:07;;;;;;;;;;;;;;;4.49;67.33;97960.50;4980289;28;2151;-93
2022/01/30 01:26:34;;;;;;;;;;;;;;;4.47;67.08;97984.75;4982881;28;1651;-94
2022/01/30 01:29:00;;;;;;;;;;;;;;;4.46;67.17;97985.78;4982236;28;1733;-95
2022/01/30 01:31:27;;;;;;;;;;;;;;;4.46;67.25;97985.78;4991000;28;1505;-94
2022/01/30 01:34:07;;;;;;;;;;;;;;;4.46;67.25;97995.66;4981518;28;2120;-94
2022/01/30 01:36:33;;;;;;;;;;;;;;;4.44;67.29;98006.56;4978208;28;1156;-93
2022/01/30 01:39:00;;;;;;;;;;;;;;;4.43;67.26;97999.59;4983116;28;1843;-95
2022/01/30 01:41:29;;;;;;;;;;;;;;;4.44;67.03;98017.22;4977334;28;1478;-94
2022/01/30 01:43:55;;;;;;;;;;;;;;;4.43;67.17;98026.25;4983249;28;1740;-94
2022/01/30 01:46:25;;;;;;;;;;;;;;;4.43;67.15;98028.91;4981944;28;1422;-94
2022/01/30 01:48:54;;;;;;;;;;;;;;;4.42;67.25;98027.31;4987449;28;1929;-93
2022/01/30 01:51:20;;;;;;;;;;;;;;;4.42;67.32;98042.50;4964137;28;1513;-92
2022/01/30 01:53:47;;;;;;;;;;;;;;;4.41;67.28;98049.69;4975423;28;1752;-94
2022/01/30 01:56:14;;;;;;;;;;;;;;;4.41;67.04;98063.03;4966822;28;1906;-94
2022/01/30 01:58:40;;;;;;;;;;;;;;;4.42;67.00;98071.81;4971855;28;2032;-95
2022/01/30 02:01:07;;;;;;;;;;;;;;;4.41;66.70;98073.69;4962882;28;1298;-95
2022/01/30 02:03:33;;;;;;;;;;;;;;;4.41;67.12;98091.50;4982210;28;1891;-95
2022/01/30 02:06:02;;;;;;;;;;;;;;;4.41;66.91;98102.16;4982660;28;1246;-93
2022/01/30 02:08:33;;;;;;;;;;;;;;;4.40;66.97;98103.22;4980608;28;1666;-93
2022/01/30 02:11:03;;;;;;;;;;;;;;;4.39;67.20;98110.41;4982089;28;1876;-93
2022/01/30 02:24:37;;;;;;;;;;;;;;;4.39;66.98;98171.72;4981792;28;1701;-94
2022/01/30 02:27:04;;;;;;;;;;;;;;;4.42;66.57;98192.56;4973360;28;1525;-93
2022/01/30 02:29:31;;;;;;;;;;;;;;;4.42;66.89;98189.09;4979756;28;1658;-93
2022/01/30 02:31:59;;;;;;;;;;;;;;;4.41;66.90;98192.78;4982085;28;1254;-93
2022/01/30 02:34:27;;;;;;;;;;;;;;;4.42;66.71;98186.44;4996004;28;2005;-93
2022/01/30 02:36:53;;;;;;;;;;;;;;;4.41;66.99;98196.28;4982372;28;1437;-95
2022/01/30 02:39:20;;;;;;;;;;;;;;;4.40;66.81;98217.81;4983506;28;1989;-95
2022/01/30 02:41:47;;;;;;;;;;;;;;;4.41;67.03;98230.94;4979339;28;1435;-95
2022/01/30 02:44:18;;;;;;;;;;;;;;;4.43;67.00;98234.16;4986717;28;1789;-94
2022/01/30 02:46:47;;;;;;;;;;;;;;;4.43;66.73;98236.81;4981439;28;1953;-93
2022/01/30 02:49:27;;;;;;;;;;;;;;;4.43;66.56;98257.34;4975314;28;1933;-93
2022/01/30 02:51:54;;;;;;;;;;;;;;;4.43;66.80;98268.81;4976173;28;1601;-93
2022/01/30 02:54:21;;;;;;;;;;;;;;;4.46;66.52;98280.84;4980994;28;1883;-93
2022/01/30 02:56:47;;;;;;;;;;;;;;;4.45;66.36;98298.69;4987731;28;1367;-94
2022/01/30 02:59:14;;;;;;;;;;;;;;;4.44;66.79;98298.94;4980990;28;1926;-95
2022/01/30 03:01:40;;;;;;;;;;;;;;;4.42;66.70;98299.19;4981098;28;1659;-94
2022/01/30 03:04:07;;;;;;;;;;;;;;;4.43;66.67;98310.63;4972878;28;1942;-95
2022/01/30 03:06:33;;;;;;;;;;;;;;;4.44;66.48;98328.25;4975821;28;2055;-95
2022/01/30 03:09:00;;;;;;;;;;;;;;;4.45;65.83;98329.88;4978773;28;2060;-93
2022/01/30 03:11:27;;;;;;;;;;;;;;;4.44;66.28;98345.06;4981221;28;1287;-95
2022/01/30 03:13:53;;;;;;;;;;;;;;;4.43;66.66;98348.75;4984940;28;2404;-94
2022/01/30 03:16:21;;;;;;;;;;;;;;;4.46;66.42;98382.94;4984512;28;1910;-93
2022/01/30 03:18:47;;;;;;;;;;;;;;;4.44;66.14;98403.72;4978870;28;1722;-94
2022/01/30 03:21:14;;;;;;;;;;;;;;;4.44;66.24;98414.38;4983614;28;1426;-93
2022/01/30 03:23:41;;;;;;;;;;;;;;;4.44;66.35;98419.72;4984438;28;1659;-92
2022/01/30 03:26:09;;;;;;;;;;;;;;;4.45;66.25;98447.97;4985565;28;1466;-95
2022/01/30 03:28:35;;;;;;;;;;;;;;;4.47;66.30;98455.72;4984431;28;1461;-94
2022/01/30 03:31:05;;;;;;;;;;;;;;;4.45;66.27;98469.31;4983392;28;1854;-94
2022/01/30 03:33:32;;;;;;;;;;;;;;;4.45;66.41;98487.16;4979518;28;1663;-94
2022/01/30 03:35:58;;;;;;;;;;;;;;;4.44;66.28;98486.34;4980132;28;2246;-93
2022/01/30 03:38:25;;;;;;;;;;;;;;;4.43;66.52;98502.56;4986287;28;1745;-94
2022/01/30 03:40:51;;;;;;;;;;;;;;;4.42;66.42;98503.59;4984807;28;1466;-93
2022/01/30 03:43:18;;;;;;;;;;;;;;;4.43;66.78;98521.22;4969257;28;1353;-94
2022/01/30 03:45:45;;;;;;;;;;;;;;;4.42;66.28;98528.41;4989720;28;1373;-94
2022/01/30 03:48:12;;;;;;;;;;;;;;;4.43;66.34;98545.22;4984250;28;1609;-93
2022/01/30 03:50:39;;;;;;;;;;;;;;;4.42;66.61;98539.06;4984587;28;1636;-94
2022/01/30 03:53:05;;;;;;;;;;;;;;;4.43;66.12;98554.00;4986097;28;1884;-94
2022/01/30 03:55:32;;;;;;;;;;;;;;;4.44;65.96;98576.16;5004226;28;1914;-94
2022/01/30 03:57:58;;;;;;;;;;;;;;;4.43;66.13;98586.00;4995578;28;1647;-95
2022/01/30 04:00:25;;;;;;;;;;;;;;;4.42;66.49;98592.38;4981635;28;1620;-94
2022/01/30 04:02:52;;;;;;;;;;;;;;;4.41;66.11;98605.91;4987807;28;1793;-94
2022/01/30 04:05:18;;;;;;;;;;;;;;;4.43;66.51;98628.66;4983676;28;1532;-93
2022/01/30 04:07:45;;;;;;;;;;;;;;;4.42;65.78;98635.03;4984008;28;1435;-94
2022/01/30 04:10:11;;;;;;;;;;;;;;;4.44;66.02;98656.13;4986748;28;1981;-93
2022/01/30 04:12:38;;;;;;;;;;;;;;;4.42;66.06;98651.03;4986420;28;1474;-92
2022/01/30 04:15:04;;;;;;;;;;;;;;;4.42;66.25;98671.53;4984921;28;1975;-93
2022/01/30 04:17:31;;;;;;;;;;;;;;;4.42;66.14;98683.00;4983650;28;1670;-93
2022/01/30 04:19:57;;;;;;;;;;;;;;;4.43;66.18;98684.63;4982803;28;1292;-93
2022/01/30 04:22:24;;;;;;;;;;;;;;;4.45;65.95;98692.41;4982071;28;1485;-93
2022/01/30 04:24:50;;;;;;;;;;;;;;;4.45;65.92;98695.09;4981325;28;2021;-95
2022/01/30 04:27:17;;;;;;;;;;;;;;;4.45;65.80;98709.22;4983637;28;1505;-94
2022/01/30 04:29:44;;;;;;;;;;;;;;;4.46;65.89;98731.34;4982663;28;1867;-94
2022/01/30 04:32:12;;;;;;;;;;;;;;;4.47;65.55;98732.97;4983027;28;1631;-93
2022/01/30 04:34:39;;;;;;;;;;;;;;;4.46;66.08;98736.69;4984823;28;1986;-94
2022/01/30 04:37:12;;;;;;;;;;;;;;;4.47;65.67;98739.16;4983839;28;1891;-94
2022/01/30 04:40:08;;;;;;;;;;;;;;;4.48;66.13;98756.75;4983838;28;1777;-94
2022/01/30 04:53:53;;;;;;;;;;;;;;;4.51;65.51;98809.63;4971373;28;1606;-93
2022/01/30 04:56:54;;;;;;;;;;;;;;;4.52;65.94;98811.25;4979953;28;1910;-93
2022/01/30 04:59:44;;;;;;;;;;;;;;;4.54;65.46;98838.50;4981195;28;1618;-92
2022/01/30 05:02:27;;;;;;;;;;;;;;;4.54;65.75;98846.50;4979561;28;2070;-93
2022/01/30 05:05:07;;;;;;;;;;;;;;;4.53;65.44;98868.06;4982385;28;1836;-93
2022/01/30 05:07:37;;;;;;;;;;;;;;;4.53;65.66;98865.41;4981606;28;1540;-94
2022/01/30 05:10:03;;;;;;;;;;;;;;;4.55;65.71;98872.13;4981865;28;1682;-94
2022/01/30 05:12:38;;;;;;;;;;;;;;;4.54;65.35;98870.50;4988775;28;1627;-95
2022/01/30 05:15:04;;;;;;;;;;;;;;;4.56;65.73;98888.97;4990858;28;1998;-93
2022/01/30 05:17:32;;;;;;;;;;;;;;;4.57;65.66;98901.25;4982253;28;1878;-94
2022/01/30 05:19:58;;;;;;;;;;;;;;;4.58;65.26;98908.22;4980800;28;1941;-93
2022/01/30 05:22:25;;;;;;;;;;;;;;;4.58;65.31;98926.88;4990451;28;1733;-94
2022/01/30 05:24:51;;;;;;;;;;;;;;;4.59;65.54;98927.69;4981450;28;1852;-94
2022/01/30 05:27:18;;;;;;;;;;;;;;;4.57;65.58;98932.44;4981701;28;1241;-93
2022/01/30 05:29:44;;;;;;;;;;;;;;;4.57;65.39;98938.59;4981949;28;1710;-94
2022/01/30 05:32:11;;;;;;;;;;;;;;;4.58;65.42;98950.06;4979108;28;1454;-94
2022/01/30 05:34:37;;;;;;;;;;;;;;;4.55;65.27;98957.44;5007495;28;1363;-93
2022/01/30 05:37:04;;;;;;;;;;;;;;;4.58;65.32;98963.38;4999140;28;1891;-92
2022/01/30 05:39:30;;;;;;;;;;;;;;;4.58;65.83;98966.88;4978224;28;1915;-93
2022/01/30 05:41:57;;;;;;;;;;;;;;;4.61;65.57;98976.28;4978670;28;1964;-93
2022/01/30 05:44:38;;;;;;;;;;;;;;;4.60;65.04;98980.00;4979198;28;1942;-93
2022/01/30 05:47:04;;;;;;;;;;;;;;;4.58;65.38;98996.19;4993120;28;1979;-94
2022/01/30 05:49:31;;;;;;;;;;;;;;;4.59;65.32;98997.84;4978997;28;2206;-93
2022/01/30 05:51:57;;;;;;;;;;;;;;;4.57;65.52;99012.44;4974017;28;1969;-92
2022/01/30 05:54:24;;;;;;;;;;;;;;;4.59;65.19;99011.19;4996685;28;2006;-94
2022/01/30 05:56:51;;;;;;;;;;;;;;;4.64;65.24;99015.84;4978969;28;1978;-93
2022/01/30 05:59:17;;;;;;;;;;;;;;;4.63;65.26;99032.88;4974071;28;2005;-94
2022/01/30 06:01:44;;;;;;;;;;;;;;;4.61;65.23;99051.75;4970410;28;1934;-93
2022/01/30 06:04:10;;;;;;;;;;;;;;;4.62;65.30;99053.41;4975923;28;1780;-92
2022/01/30 06:06:37;;;;;;;;;;;;;;;4.65;65.04;99066.31;4979280;28;2246;-92
2022/01/30 06:09:18;;;;;;;;;;;;;;;4.64;65.37;99075.31;4979049;28;1505;-92
2022/01/30 06:11:47;;;;;;;;;;;;;;;4.95;64.28;99095.00;4962395;28;1240;-93
2022/01/30 06:14:14;;;;;;;;;;;;;;;4.72;64.97;99090.25;4973499;28;2054;-93
2022/01/30 06:16:41;;;;;;;;;;;;;;;4.66;65.34;99097.28;4980693;28;1967;-95
2022/01/30 06:19:07;;;;;;;;;;;;;;;4.76;64.95;99116.28;4978325;28;1702;-92
2022/01/30 06:21:34;;;;;;;;;;;;;;;4.73;65.01;99118.56;4976022;28;1286;-92
2022/01/30 06:24:01;;;;;;;;;;;;;;;4.68;65.26;99153.09;4995647;28;1876;-93
2022/01/30 06:26:28;;;;;;;;;;;;;;;4.69;65.25;99158.19;4982186;28;1273;-93
2022/01/30 06:28:54;;;;;;;;;;;;;;;4.65;65.26;99165.00;4982283;28;1875;-92
2022/01/30 06:31:22;;;;;;;;;;;;;;;4.71;65.25;99198.00;4975544;28;1822;-94
2022/01/30 06:33:48;;;;;;;;;;;;;;;4.71;64.99;99217.47;4982442;28;2029;-95
2022/01/30 06:36:15;;;;;;;;;;;;;;;4.75;64.85;99234.66;4981688;28;1907;-94
2022/01/30 06:38:41;;;;;;;;;;;;;;;4.77;64.83;99242.47;4988213;28;1657;-94
2022/01/30 06:41:08;;;;;;;;;;;;;;;4.74;64.89;99235.72;4974434;28;1822;-93
2022/01/30 06:43:34;;;;;;;;;;;;;;;4.84;64.66;99253.09;4982056;28;1419;-94
2022/01/30 06:46:01;;;;;;;;;;;;;;;4.88;64.40;99264.97;4981503;28;1430;-93
2022/01/30 06:48:28;;;;;;;;;;;;;;;4.72;65.05;99264.44;4988210;28;1877;-93
2022/01/30 06:50:54;;;;;;;;;;;;;;;4.69;65.22;99275.53;5000442;28;1532;-94
2022/01/30 06:53:22;;;;;;;;;;;;;;;4.68;65.24;99291.75;4985882;28;2100;-92
2022/01/30 06:55:48;;;;;;;;;;;;;;;4.75;64.83;99292.53;4980322;28;1911;-93
2022/01/30 06:58:15;;;;;;;;;;;;;;;4.68;65.21;99321.09;4986297;28;2053;-94
2022/01/30 07:00:41;;;;;;;;;;;;;;;4.71;65.33;99328.69;4981315;28;1625;-93
2022/01/30 07:03:08;;;;;;;;;;;;;;;4.83;64.92;99340.31;4986823;28;1835;-93
2022/01/30 07:05:34;;;;;;;;;;;;;;;4.71;65.06;99353.50;4986682;28;1202;-93
2022/01/30 07:08:01;;;;;;;;;;;;;;;4.74;65.07;99361.09;4987002;28;1375;-95
2022/01/30 07:10:27;;;;;;;;;;;;;;;4.74;64.98;99371.75;4985562;28;1532;-94
2022/01/30 07:12:54;;;;;;;;;;;;;;;4.67;65.29;99370.13;4999923;28;1760;-94
2022/01/30 07:15:20;;;;;;;;;;;;;;;4.67;65.17;99383.47;4982721;28;1413;-94
2022/01/30 07:17:47;;;;;;;;;;;;;;;4.72;65.00;99395.16;4985564;28;1911;-94
2022/01/30 07:20:14;;;;;;;;;;;;;;;4.71;65.05;99412.19;4990238;28;1930;-93
2022/01/30 07:22:40;;;;;;;;;;;;;;;4.75;65.01;99428.59;4977615;28;1929;-92
2022/01/30 07:25:07;;;;;;;;;;;;;;;4.65;65.35;99407.69;4990802;28;1225;-94
2022/01/30 07:27:34;;;;;;;;;;;;;;;4.68;65.43;99435.78;4998441;28;1892;-94
2022/01/30 07:30:00;;;;;;;;;;;;;;;4.66;65.40;99457.31;4985921;28;1703;-94
2022/01/30 07:32:27;;;;;;;;;;;;;;;4.78;64.67;99474.34;4983150;28;1801;-96
2022/01/30 07:34:54;;;;;;;;;;;;;;;4.86;64.59;99478.63;4989619;28;1660;-94
2022/01/30 07:40:02;;;;;;;;;;;;;;;4.77;64.83;99509.22;5196898;23;2236;-94
2022/01/30 07:42:29;;;;;;;;;;;;;;;4.69;65.09;99531.59;4978416;28;1713;-95
2022/01/30 07:44:56;;;;;;;;;;;;;;;4.77;64.81;99536.72;4968555;28;1873;-94
2022/01/30 07:47:23;;;;;;;;;;;;;;;4.71;64.92;99531.41;4976871;28;1627;-94
2022/01/30 07:49:51;;;;;;;;;;;;;;;4.65;65.07;99556.25;4970475;28;1552;-94
2022/01/30 07:52:18;;;;;;;;;;;;;;;4.63;65.25;99556.44;4966113;28;1501;-94
2022/01/30 07:54:45;;;;;;;;;;;;;;;4.67;65.11;99581.66;4973233;28;2074;-94
2022/01/30 07:57:12;;;;;;;;;;;;;;;4.66;65.04;99574.69;4964757;28;1895;-94
2022/01/30 07:59:39;;;;;;;;;;;;;;;4.79;64.54;99576.53;4970770;28;1209;-93
2022/01/30 08:02:05;;;;;;;;;;;;;;;4.77;64.47;99600.75;4965378;28;2073;-93
2022/01/30 08:04:33;;;;;;;;;;;;;;;4.69;64.97;99603.63;4968273;28;1735;-95
2022/01/30 08:07:12;;;;;;;;;;;;;;;4.71;64.84;99620.25;4990824;28;1455;-94
2022/01/30 08:09:44;;;;;;;;;;;;;;;4.81;64.81;99609.16;4977684;28;1415;-93
2022/01/30 08:12:11;;;;;;;;;;;;;;;4.76;64.81;99623.13;4970325;28;1479;-95
2022/01/30 08:14:38;;;;;;;;;;;;;;;4.70;64.93;99629.25;4985924;28;1840;-95
2022/01/30 08:17:04;;;;;;;;;;;;;;;4.69;65.00;99634.81;4973393;28;1964;-94
2022/01/30 08:19:31;;;;;;;;;;;;;;;4.71;64.92;99630.91;4974782;28;1965;-95
2022/01/30 08:22:00;;;;;;;;;;;;;;;4.72;64.88;99632.56;4980854;28;2142;-95
2022/01/30 08:24:27;;;;;;;;;;;;;;;4.78;64.83;99631.72;4970148;28;1820;-94
2022/01/30 08:26:54;;;;;;;;;;;;;;;4.83;64.41;99635.66;4961290;28;1651;-92
2022/01/30 08:29:21;;;;;;;;;;;;;;;4.98;64.18;99647.75;4964958;28;1479;-93
2022/01/30 08:31:48;;;;;;;;;;;;;;;4.83;64.25;99649.00;4967504;28;1430;-93
2022/01/30 08:34:15;;;;;;;;;;;;;;;4.97;63.85;99661.28;4967402;28;2042;-93
2022/01/30 08:36:41;;;;;;;;;;;;;;;4.85;64.38;99679.75;4945377;29;1902;-93
2022/01/30 08:39:08;;;;;;;;;;;;;;;4.95;63.92;99663.34;4953871;28;1734;-92
2022/01/30 08:41:35;;;;;;;;;;;;;;;4.79;64.33;99677.91;4961792;28;1958;-93
2022/01/30 08:44:01;;;;;;;;;;;;;;;4.86;64.18;99686.75;4970669;28;1554;-93
2022/01/30 08:46:28;;;;;;;;;;;;;;;4.77;64.72;99695.97;4966987;28;1713;-94
2022/01/30 08:48:55;;;;;;;;;;;;;;;4.86;64.33;99691.28;4965018;28;1770;-94
2022/01/30 08:51:21;;;;;;;;;;;;;;;4.75;64.69;99695.34;4961061;28;1549;-93
2022/01/30 08:53:48;;;;;;;;;;;;;;;4.80;64.69;99708.09;4962999;28;1949;-95
2022/01/30 08:56:14;;;;;;;;;;;;;;;4.76;64.54;99711.16;4971600;28;1886;-95
2022/01/30 08:58:41;;;;;;;;;;;;;;;4.82;64.51;99719.38;4969013;28;2144;-94
2022/01/30 09:04:08;;;;;;;;;;;;;;;4.91;64.34;99737.66;5093221;23;3735;-94
2022/01/30 09:06:38;;;;;;;;;;;;;;;4.89;64.30;99749.56;4967707;28;1302;-94
2022/01/30 09:09:09;;;;;;;;;;;;;;;5.00;63.91;99752.47;4964314;29;1167;-95
2022/01/30 09:11:36;;;;;;;;;;;;;;;4.99;63.93;99758.81;4972831;28;1468;-93
2022/01/30 09:14:05;;;;;;;;;;;;;;;4.83;64.53;99777.88;4968020;28;1808;-94
2022/01/30 09:16:32;;;;;;;;;;;;;;;4.76;64.77;99775.19;4986545;28;1899;-93
2022/01/30 09:18:59;;;;;;;;;;;;;;;4.88;64.27;99793.25;4970981;28;1912;-93
2022/01/30 09:21:29;;;;;;;;;;;;;;;4.77;64.70;99805.34;4986167;28;831;-94
2022/01/30 09:23:56;;;;;;;;;;;;;;;4.75;64.82;99808.22;4974038;28;1320;-93
2022/01/30 09:26:23;;;;;;;;;;;;;;;4.74;64.66;99817.25;4971044;28;1316;-94
2022/01/30 09:28:49;;;;;;;;;;;;;;;4.76;64.79;99804.53;4972521;28;1908;-92
2022/01/30 09:31:16;;;;;;;;;;;;;;;4.86;64.42;99835.34;4975476;28;1179;-95
2022/01/30 09:33:42;;;;;;;;;;;;;;;4.87;64.47;99827.13;4979538;28;1761;-95
2022/01/30 09:36:12;;;;;;;;;;;;;;;4.92;64.11;99845.22;4957890;29;1976;-95
2022/01/30 09:38:39;;;;;;;;;;;;;;;4.82;64.24;99853.59;4959800;29;2101;-93
2022/01/30 09:41:06;;;;;;;;;;;;;;;4.78;64.57;99858.50;4974970;28;1652;-95
2022/01/30 09:43:32;;;;;;;;;;;;;;;5.05;63.86;99865.78;4971490;29;1180;-95
2022/01/30 09:46:00;;;;;;;;;;;;;;;4.88;64.45;99867.97;4969818;29;1476;-94
2022/01/30 09:48:26;;;;;;;;;;;;;;;4.91;64.24;99864.91;4965935;28;1925;-94
2022/01/30 09:50:57;;;;;;;;;;;;;;;4.84;64.46;99872.91;4974893;28;1277;-94
2022/01/30 09:53:29;;;;;;;;;;;;;;;4.78;64.58;99868.34;4981997;28;1718;-94
2022/01/30 09:55:56;;;;;;;;;;;;;;;4.77;64.76;99872.88;4955770;28;1366;-94
2022/01/30 09:58:22;;;;;;;;;;;;;;;4.82;64.74;99866.09;4976451;28;1918;-95
2022/01/30 10:01:01;;;;;;;;;;;;;;;4.94;63.92;99848.50;4975177;28;1299;-93
2022/01/30 10:03:29;;;;;;;;;;;;;;;4.87;64.20;99867.16;4962783;28;2170;-93
2022/01/30 10:05:55;;;;;;;;;;;;;;;4.83;64.56;99881.94;4943902;29;2041;-94
2022/01/30 10:08:22;;;;;;;;;;;;;;;4.78;64.30;99873.69;4967379;28;1312;-94
2022/01/30 10:10:48;;;;;;;;;;;;;;;4.79;64.25;99878.00;4984604;28;1446;-94
2022/01/30 10:13:16;;;;;;;;;;;;;;;4.72;64.22;99883.31;4955051;29;1758;-95
2022/01/30 10:15:43;;;;;;;;;;;;;;;4.67;64.79;99895.59;4959304;29;1471;-93
2022/01/30 10:18:09;;;;;;;;;;;;;;;4.69;64.45;99905.03;4985784;28;2083;-95
2022/01/30 10:20:36;;;;;;;;;;;;;;;4.66;64.70;99904.63;4968549;29;1284;-94
2022/01/30 10:37:43;;;;;;;;;;;;;;;4.65;65.18;99973.16;5016980;28;1887;-95
2022/01/30 10:43:04;;;;;;;;;;;;;;;4.64;65.20;99984.81;4992153;28;1459;-95
2022/01/30 10:45:31;;;;;;;;;;;;;;;4.64;64.92;99984.00;5032667;28;1823;-96
2022/01/30 10:47:59;;;;;;;;;;;;;;;4.65;65.08;99991.00;5017227;28;1332;-95
2022/01/30 10:50:27;;;;;;;;;;;;;;;4.64;64.90;99992.00;5003053;28;1084;-95
2022/01/30 10:52:56;;;;;;;;;;;;;;;4.65;65.54;100001.69;4997269;28;1584;-95
2022/01/30 10:55:24;;;;;;;;;;;;;;;4.65;65.34;99999.84;4996165;28;1263;-94
2022/01/30 10:57:50;;;;;;;;;;;;;;;4.66;65.54;100008.66;4994538;28;1880;-95
2022/01/30 11:00:18;;;;;;;;;;;;;;;4.63;65.66;100003.72;4996594;28;1303;-96
2022/01/30 11:02:44;;;;;;;;;;;;;;;4.65;65.59;100015.03;4999091;28;1190;-93
2022/01/30 11:05:13;;;;;;;;;;;;;;;4.65;65.40;100026.50;4994766;28;1397;-93
2022/01/30 11:07:41;;;;;;;;;;;;;;;4.67;65.35;100044.97;5009438;28;1093;-94
2022/01/30 11:10:11;;;;;;;;;;;;;;;4.67;65.51;100029.78;4993383;28;1248;-93
2022/01/30 11:12:46;;;;;;;;;;;;;;;4.67;65.32;100044.97;4993138;28;1501;-95
2022/01/30 11:15:33;;;;;;;;;;;;;;;4.70;65.58;100049.91;5004718;28;1192;-95
2022/01/30 11:18:05;;;;;;;;;;;;;;;4.68;65.49;100066.13;4991850;28;1989;-96
2022/01/30 11:20:32;;;;;;;;;;;;;;;4.69;65.83;100067.78;4991970;28;1195;-94
2022/01/30 11:22:59;;;;;;;;;;;;;;;4.70;65.63;100058.75;4982110;28;1608;-93
2022/01/30 11:25:25;;;;;;;;;;;;;;;4.71;65.46;100075.59;4988822;28;1396;-93
2022/01/30 11:27:52;;;;;;;;;;;;;;;4.71;65.67;100078.28;4990734;28;1373;-95
2022/01/30 11:30:24;;;;;;;;;;;;;;;4.70;65.90;100077.41;4992796;28;1264;-95
2022/01/30 11:32:50;;;;;;;;;;;;;;;4.71;65.96;100099.59;4970786;28;1420;-94
2022/01/30 11:38:18;;;;;;;;;;;;;;;4.72;65.82;100106.59;5009521;28;1969;-94
2022/01/30 11:40:48;;;;;;;;;;;;;;;4.72;65.97;100117.25;4988139;28;1502;-94
2022/01/30 11:43:22;;;;;;;;;;;;;;;4.75;65.85;100122.22;4974877;28;1229;-94
2022/01/30 11:45:49;;;;;;;;;;;;;;;4.76;65.97;100130.03;4995193;28;1391;-93
2022/01/30 11:48:16;;;;;;;;;;;;;;;4.75;65.92;100122.22;5008666;28;1337;-95
2022/01/30 11:50:42;;;;;;;;;;;;;;;4.74;65.98;100140.06;4992426;28;1332;-95
2022/01/30 11:53:09;;;;;;;;;;;;;;;4.76;65.87;100131.84;4993381;28;1660;-93
2022/01/30 11:55:35;;;;;;;;;;;;;;;4.79;65.52;100136.81;5010356;28;1207;-95
2022/01/30 11:58:02;;;;;;;;;;;;;;;4.81;65.73;100128.63;5012636;28;1967;-95
2022/01/30 12:00:29;;;;;;;;;;;;;;;4.80;65.48;100133.13;5013221;28;1379;-94
2022/01/30 12:02:56;;;;;;;;;;;;;;;4.79;65.89;100144.81;5010314;28;1237;-94
2022/01/30 12:05:23;;;;;;;;;;;;;;;4.80;65.70;100135.81;5008358;28;1209;-94
2022/01/30 12:07:52;;;;;;;;;;;;;;;4.82;65.66;100143.59;5011093;28;2048;-94
2022/01/30 12:10:19;;;;;;;;;;;;;;;4.82;65.87;100146.28;4995640;28;1285;-94
2022/01/30 12:12:45;;;;;;;;;;;;;;;4.84;65.68;100150.41;4994282;28;1306;-95
2022/01/30 12:15:12;;;;;;;;;;;;;;;4.82;66.03;100156.94;4995760;28;1646;-93
2022/01/30 12:17:40;;;;;;;;;;;;;;;4.83;65.96;100153.28;4980327;28;1887;-94
2022/01/30 12:20:07;;;;;;;;;;;;;;;4.85;65.61;100167.22;4988953;28;1479;-94
2022/01/30 12:22:34;;;;;;;;;;;;;;;4.84;66.13;100161.06;4995617;28;1284;-94
2022/01/30 12:25:01;;;;;;;;;;;;;;;4.84;65.94;100163.75;4992764;28;1506;-95
2022/01/30 12:27:27;;;;;;;;;;;;;;;4.86;65.94;100159.03;4997765;28;1331;-96
2022/01/30 12:29:55;;;;;;;;;;;;;;;4.86;66.36;100163.56;4996899;28;1198;-94
2022/01/30 12:32:22;;;;;;;;;;;;;;;4.88;65.99;100180.19;4995378;28;1234;-94
2022/01/30 12:34:49;;;;;;;;;;;;;;;4.88;66.14;100173.03;4998067;28;1297;-94
2022/01/30 12:37:16;;;;;;;;;;;;;;;4.88;65.90;100177.53;4991989;28;1892;-94
2022/01/30 12:39:46;;;;;;;;;;;;;;;4.89;66.24;100179.19;4991823;28;1345;-95
2022/01/30 12:42:14;;;;;;;;;;;;;;;4.89;66.37;100172.00;4998528;28;1593;-95
2022/01/30 12:44:43;;;;;;;;;;;;;;;4.90;66.36;100175.50;5010174;28;1148;-96
2022/01/30 12:47:10;;;;;;;;;;;;;;;4.91;65.86;100174.47;5010615;28;1205;-94
2022/01/30 12:49:48;;;;;;;;;;;;;;;4.91;66.43;100175.31;5008273;28;981;-94
2022/01/30 12:54:59;;;;;;;;;;;;;;;4.92;66.65;100189.47;5008082;28;1155;-94
2022/01/30 12:57:33;;;;;;;;;;;;;;;4.92;66.63;100192.97;4998383;28;1940;-95
2022/01/30 13:00:00;;;;;;;;;;;;;;;4.95;66.70;100191.78;4995293;28;1380;-94
2022/01/30 13:02:27;;;;;;;;;;;;;;;4.95;66.81;100189.09;4992549;28;1434;-94
2022/01/30 13:04:53;;;;;;;;;;;;;;;4.97;66.79;100195.91;4976452;28;1609;-94
2022/01/30 13:07:21;;;;;;;;;;;;;;;4.99;66.79;100199.19;5004899;28;1309;-95
2022/01/30 13:09:50;;;;;;;;;;;;;;;5.01;66.80;100197.16;5010736;28;1442;-95
2022/01/30 13:12:20;;;;;;;;;;;;;;;5.00;66.83;100200.84;5016604;28;1348;-95
2022/01/30 13:14:47;;;;;;;;;;;;;;;5.03;66.90;100194.31;4996913;28;1780;-95
2022/01/30 13:17:14;;;;;;;;;;;;;;;5.03;66.70;100198.81;4991028;28;1883;-93
2022/01/30 13:19:42;;;;;;;;;;;;;;;5.03;67.05;100201.47;4996285;28;1605;-94
2022/01/30 13:22:18;;;;;;;;;;;;;;;5.04;66.98;100201.28;4997809;28;1528;-95
2022/01/30 13:24:46;;;;;;;;;;;;;;;5.04;66.92;100211.97;4999699;28;1521;-95
2022/01/30 13:27:15;;;;;;;;;;;;;;;5.06;67.04;100201.94;5018362;28;1476;-94
2022/01/30 13:29:42;;;;;;;;;;;;;;;5.08;66.96;100205.22;4992276;28;1637;-95
2022/01/30 13:34:59;;;;;;;;;;;;;;;5.09;66.96;100212.22;5006725;28;1513;-95
2022/01/30 13:37:25;;;;;;;;;;;;;;;5.12;67.19;100211.03;4980449;28;1967;-93
2022/01/30 13:43:10;;;;;;;;;;;;;;;5.18;66.62;100215.59;5008129;28;1580;-93
2022/01/30 13:48:50;;;;;;;;;;;;;;;5.12;59.33;100219.84;4984794;28;2020;-93
2022/01/30 13:51:16;;;;;;;;;;;;;;;5.15;63.53;100224.81;4979203;28;1687;-93
2022/01/30 13:53:43;;;;;;;;;;;;;;;5.15;63.76;100213.31;4983754;28;1779;-93
2022/01/30 13:56:11;;;;;;;;;;;;;;;5.16;64.33;100228.28;4983711;28;1585;-92
2022/01/30 13:58:38;;;;;;;;;;;;;;;5.17;64.57;100235.28;4978011;28;1987;-95
2022/01/30 14:01:07;;;;;;;;;;;;;;;5.18;64.74;100231.59;4995395;28;1186;-94
2022/01/30 14:03:34;;;;;;;;;;;;;;;5.19;65.01;100238.59;4977626;28;1528;-95
2022/01/30 14:06:00;;;;;;;;;;;;;;;5.10;56.11;100239.75;4964674;28;1312;-94
2022/01/30 14:08:27;;;;;;;;;;;;;;;5.00;57.91;100243.56;4972190;28;1592;-94
2022/01/30 14:10:53;;;;;;;;;;;;;;;5.09;59.18;100249.59;4984160;28;1443;-94
2022/01/30 14:16:02;;;;;;;;;;;;;;;5.20;61.50;100250.91;5028823;28;1867;-95
2022/01/30 14:18:34;;;;;;;;;;;;;;;5.20;62.06;100254.41;5010167;28;1935;-94
2022/01/30 14:21:01;;;;;;;;;;;;;;;5.21;62.63;100264.09;5004322;28;1337;-94
2022/01/30 14:23:30;;;;;;;;;;;;;;;5.22;62.96;100265.72;5014678;28;1481;-95
2022/01/30 14:25:56;;;;;;;;;;;;;;;5.23;63.22;100275.41;5014050;28;1249;-93